^^
Meteo Knjazevac Station Historical Data
 
Daily Summary for January 25, 2021 Units:  Metric    English   Both
Daily Weekly Monthly Yearly Custom
  Current: High: Low: Average:
Temperature: 2.5 °C 11.4 °C 2.5 °C 8.3 °C
Dew Point: 0.2 °C 7.6 °C 0.2 °C 5.6 °C
Humidity: 85% 88% 68% 83%
Wind Speed: 8km/h 25.7km/h 1.6km/h 11.9km/h
Wind Gust: 11.3km/h 46.7km/h - -
WindWSW - - SW
Pressure: 1003.9 hPa 1003.9 hPa 997.2 hPa -
Precipitation: 2.79 mm      
Historical Graphs
 
 
Tabular Data for January 25, 2021
Time Temperature Dew Point Pressure Wind Wind Speed Wind Gust Humidity Rainfall Rate (Hourly) solar Conditions
00:00 11.4 °C 5.7 °C 998.2 hPa South 11.3 km/h 22.5 km/h 68% 0 mm 0 W/m2
00:10 11.4 °C 6.1 °C 998.2 hPa South 12.9 km/h 29 km/h 70% 0 mm 0 W/m2
00:20 11 °C 6.6 °C 998.5 hPa South 11.3 km/h 32.2 km/h 74% 0.25 mm 0 W/m2
00:30 10.6 °C 6.9 °C 998.5 hPa SSW 11.3 km/h 32.2 km/h 78% 0.25 mm 0 W/m2
00:40 10.2 °C 6.9 °C 998.5 hPa South 11.3 km/h 22.5 km/h 80% 0 mm 0 W/m2
00:50 10.1 °C 7 °C 998.2 hPa South 9.7 km/h 24.1 km/h 81% 0 mm 0 W/m2
01:00 9.9 °C 7.2 °C 998.2 hPa SSE 9.7 km/h 22.5 km/h 83% 0 mm 0 W/m2
01:10 9.7 °C 6.9 °C 997.9 hPa South 4.8 km/h 20.9 km/h 83% 0 mm 0 W/m2
01:20 9.5 °C 6.9 °C 997.9 hPa SSW 9.7 km/h 16.1 km/h 84% 0 mm 0 W/m2
01:30 9.4 °C 7 °C 997.5 hPa South 12.9 km/h 27.4 km/h 85% 0 mm 0 W/m2
01:40 9.4 °C 6.8 °C 997.5 hPa South 9.7 km/h 25.7 km/h 84% 0 mm 0 W/m2
01:50 9.5 °C 6.8 °C 997.5 hPa SW 4.8 km/h 19.3 km/h 83% 0 mm 0 W/m2
02:00 9.5 °C 6.8 °C 997.9 hPa WNW 3.2 km/h 11.3 km/h 83% 0 mm 0 W/m2
02:10 9.7 °C 6.6 °C 997.9 hPa SE 3.2 km/h 16.1 km/h 81% 0 mm 0 W/m2
02:20 9.8 °C 6.5 °C 997.5 hPa SSW 11.3 km/h 29 km/h 80% 0 mm 0 W/m2
02:30 10.2 °C 6.7 °C 997.9 hPa SSW 16.1 km/h 32.2 km/h 79% 0 mm 0 W/m2
02:40 10.4 °C 6.9 °C 997.5 hPa SW 16.1 km/h 38.6 km/h 79% 0.25 mm 0 W/m2
02:50 10.4 °C 7.1 °C 997.5 hPa SW 14.5 km/h 24.1 km/h 80% 0.25 mm 0 W/m2
03:00 10.2 °C 7.4 °C 997.5 hPa SW 12.9 km/h 30.6 km/h 83% 0.25 mm 0 W/m2
03:10 10 °C 7.4 °C 997.5 hPa SW 14.5 km/h 24.1 km/h 84% 0 mm 0 W/m2
03:20 9.9 °C 7.3 °C 997.2 hPa SW 11.3 km/h 24.1 km/h 84% 0 mm 0 W/m2
03:30 9.7 °C 7.4 °C 997.5 hPa SSW 8 km/h 22.5 km/h 86% 0 mm 0 W/m2
03:40 9.8 °C 7.4 °C 997.5 hPa SSW 9.7 km/h 27.4 km/h 85% 0.25 mm 0 W/m2
03:50 9.6 °C 7.4 °C 997.9 hPa SSW 4.8 km/h 19.3 km/h 86% 0.25 mm 0 W/m2
04:00 9.5 °C 7.6 °C 998.2 hPa SSW 1.6 km/h 9.7 km/h 88% 0 mm 0 W/m2
04:10 9.5 °C 7.6 °C 998.2 hPa West 3.2 km/h 8 km/h 88% 0 mm 0 W/m2
04:20 9.5 °C 7.6 °C 998.5 hPa WSW 8 km/h 12.9 km/h 88% 0 mm 0 W/m2
04:30 9.5 °C 7.3 °C 998.5 hPa SW 14.5 km/h 24.1 km/h 86% 0.25 mm 0 W/m2
04:40 9.5 °C 7.6 °C 998.5 hPa SW 12.9 km/h 22.5 km/h 88% 0 mm 0 W/m2
04:50 9.6 °C 7.2 °C 998.5 hPa SW 19.3 km/h 40.2 km/h 85% 0.51 mm 0 W/m2
05:00 9.5 °C 7.3 °C 998.9 hPa SW 22.5 km/h 40.2 km/h 86% 0.76 mm 0 W/m2
05:10 9.4 °C 7.2 °C 999.2 hPa SW 19.3 km/h 37 km/h 86% 0.51 mm 0 W/m2
05:20 8.9 °C 6.7 °C 1000.2 hPa WSW 25.7 km/h 38.6 km/h 86% 0.51 mm 0 W/m2
05:30 6.3 °C 3.7 °C 1000.6 hPa West 16.1 km/h 43.5 km/h 83% 0.51 mm 0 W/m2
05:40 5 °C 2.6 °C 1001.2 hPa West 20.9 km/h 46.7 km/h 84% 0 mm 0 W/m2
05:50 4.3 °C 1.8 °C 1001.6 hPa West 16.1 km/h 35.4 km/h 84% 0 mm 0 W/m2
06:00 3.9 °C 1.6 °C 1002.3 hPa WSW 14.5 km/h 29 km/h 85% 0 mm 0 W/m2
06:10 3.5 °C 1.2 °C 1002.6 hPa WSW 11.3 km/h 27.4 km/h 85% 0 mm 0 W/m2
06:20 3.2 °C 0.9 °C 1002.6 hPa WSW 14.5 km/h 27.4 km/h 85% 0 mm 0 W/m2
06:30 3 °C 0.7 °C 1002.9 hPa WSW 16.1 km/h 35.4 km/h 85% 0 mm 0 W/m2
06:40 2.8 °C 0.5 °C 1002.9 hPa WSW 20.9 km/h 35.4 km/h 85% 0 mm 0 W/m2
06:50 2.6 °C 0.5 °C 1003.6 hPa WSW 11.3 km/h 30.6 km/h 86% 0 mm 0 W/m2
07:00 2.5 °C 0.2 °C 1003.6 hPa SW 4.8 km/h 19.3 km/h 85% 0 mm 1 W/m2
07:10 2.5 °C 0.2 °C 1003.9 hPa WSW 8 km/h 11.3 km/h 85% 0 mm 2 W/m2
Knjazevac, Serbia
Compliments of Weather Underground - 2 mb